createdAt,value
2023-05-09T00:00:32.642Z,43.10
2023-05-09T00:03:02.712Z,42.81
2023-05-09T00:05:32.427Z,43.13
2023-05-09T00:08:02.392Z,43.09
2023-05-09T00:10:34.941Z,43.06
2023-05-09T00:13:05.316Z,43.16
2023-05-09T00:15:35.069Z,43.23
2023-05-09T00:18:05.181Z,43.19
2023-05-09T00:20:36.584Z,43.20
2023-05-09T00:23:07.386Z,43.18
2023-05-09T00:25:39.399Z,43.06
2023-05-09T00:28:09.322Z,43.11
2023-05-09T00:30:39.805Z,43.27
2023-05-09T00:33:09.418Z,43.15
2023-05-09T00:35:39.422Z,43.26
2023-05-09T00:38:10.008Z,43.30
2023-05-09T00:40:41.914Z,43.29
2023-05-09T00:43:12.305Z,43.53
2023-05-09T00:45:42.781Z,43.22
2023-05-09T00:48:13.378Z,43.38
2023-05-09T00:50:44.269Z,43.20
2023-05-09T00:53:15.694Z,43.10
2023-05-09T00:55:48.304Z,43.33
2023-05-09T00:58:19.759Z,43.16
2023-05-09T01:00:53.153Z,43.16
2023-05-09T01:03:23.306Z,43.56
2023-05-09T01:06:05.059Z,43.50
2023-05-09T01:08:49.504Z,43.37
2023-05-09T01:11:34.513Z,43.23
2023-05-09T01:14:18.548Z,43.23
2023-05-09T01:16:58.508Z,43.21
2023-05-09T01:19:54.565Z,43.32
2023-05-09T01:22:30.156Z,42.89
2023-05-09T01:25:51.833Z,43.21
2023-05-09T01:29:04.023Z,43.27
2023-05-09T01:31:43.065Z,42.98
2023-05-09T01:34:17.349Z,43.47
2023-05-09T01:36:52.379Z,43.24
2023-05-09T01:39:33.797Z,43.59
2023-05-09T01:42:09.159Z,43.42
2023-05-09T01:44:43.023Z,43.22
2023-05-09T01:47:16.925Z,43.30
2023-05-09T01:49:50.299Z,43.34
2023-05-09T01:52:24.002Z,43.37
2023-05-09T01:54:54.498Z,43.48
2023-05-09T01:57:26.881Z,43.35
2023-05-09T01:59:58.832Z,43.33
2023-05-09T02:02:32.202Z,43.35
2023-05-09T02:05:04.791Z,43.23
2023-05-09T02:07:37.516Z,43.29
2023-05-09T02:10:11.839Z,43.36
2023-05-09T02:12:43.403Z,43.30
2023-05-09T02:15:14.503Z,43.30
2023-05-09T02:17:47.096Z,43.41
2023-05-09T02:20:17.486Z,43.25
2023-05-09T02:22:48.853Z,43.33
2023-05-09T02:25:19.952Z,43.36
2023-05-09T02:27:50.645Z,43.49
2023-05-09T02:30:26.523Z,43.52
2023-05-09T02:33:04.322Z,43.19
2023-05-09T02:35:35.245Z,43.29
2023-05-09T02:38:05.454Z,43.53
2023-05-09T02:40:37.171Z,43.40
2023-05-09T02:43:07.565Z,43.24
2023-05-09T02:45:37.943Z,43.35
2023-05-09T02:48:11.793Z,43.20
2023-05-09T02:50:43.385Z,43.53
2023-05-09T02:53:14.271Z,43.51
2023-05-09T02:55:44.377Z,43.39
2023-05-09T02:58:15.151Z,43.34
2023-05-09T03:00:46.025Z,43.36
2023-05-09T03:03:19.538Z,43.44
2023-05-09T03:05:49.913Z,43.58
2023-05-09T03:08:20.266Z,43.45
2023-05-09T03:10:51.548Z,43.50
2023-05-09T03:13:22.203Z,43.52
2023-05-09T03:15:53.089Z,43.41
2023-05-09T03:18:25.531Z,43.52
2023-05-09T03:20:55.978Z,43.41
2023-05-09T03:23:26.086Z,43.71
2023-05-09T03:25:56.037Z,43.68
2023-05-09T03:28:26.330Z,43.54
2023-05-09T03:30:56.571Z,43.62
2023-05-09T03:33:28.464Z,43.79
2023-05-09T03:35:58.581Z,43.52
2023-05-09T03:38:28.895Z,43.67
2023-05-09T03:40:59.536Z,43.62
2023-05-09T03:43:29.646Z,43.77
2023-05-09T03:46:00.128Z,43.64
2023-05-09T03:48:32.099Z,43.54
2023-05-09T03:51:03.572Z,43.73
2023-05-09T03:53:33.927Z,43.65
2023-05-09T03:56:04.544Z,43.71
2023-05-09T03:58:35.026Z,43.78
2023-05-09T04:01:05.525Z,43.73
2023-05-09T04:03:38.610Z,43.82
2023-05-09T04:06:09.857Z,43.80
2023-05-09T04:08:40.048Z,43.93
2023-05-09T04:11:10.442Z,43.79
2023-05-09T04:13:40.256Z,43.68
2023-05-09T04:16:10.672Z,43.83
2023-05-09T04:18:43.230Z,43.84
2023-05-09T04:21:13.487Z,43.75
2023-05-09T04:23:44.074Z,43.87
2023-05-09T04:26:16.129Z,43.89
2023-05-09T04:28:46.671Z,43.89
2023-05-09T04:31:16.590Z,44.15
2023-05-09T04:33:48.489Z,44.29
2023-05-09T04:36:18.752Z,44.16
2023-05-09T04:38:49.353Z,44.23
2023-05-09T04:41:19.822Z,44.15
2023-05-09T04:43:49.893Z,44.27
2023-05-09T04:46:20.356Z,44.27
2023-05-09T04:48:52.683Z,44.22
2023-05-09T04:51:22.575Z,44.36
2023-05-09T04:53:53.428Z,44.56
2023-05-09T04:56:24.145Z,44.46
2023-05-09T04:58:54.039Z,44.48
2023-05-09T05:01:23.865Z,44.58
2023-05-09T05:03:56.103Z,44.27
2023-05-09T05:06:26.531Z,44.43
2023-05-09T05:08:56.653Z,44.34
2023-05-09T05:11:26.938Z,44.40
2023-05-09T05:13:57.136Z,44.75
2023-05-09T05:16:27.261Z,44.56
2023-05-09T05:18:59.679Z,44.59
2023-05-09T05:21:30.027Z,44.47
2023-05-09T05:23:59.688Z,44.46
2023-05-09T05:26:30.426Z,44.46
2023-05-09T05:29:01.361Z,44.35
2023-05-09T05:31:31.701Z,44.36
2023-05-09T05:34:04.359Z,44.34
2023-05-09T05:36:34.547Z,44.48
2023-05-09T05:39:04.970Z,44.14
2023-05-09T05:41:35.272Z,44.45
2023-05-09T05:44:05.242Z,44.47
2023-05-09T05:46:35.038Z,44.47
2023-05-09T05:49:06.526Z,44.40
2023-05-09T05:51:36.377Z,44.46
2023-05-09T05:54:07.000Z,44.22
2023-05-09T05:56:37.045Z,44.43
2023-05-09T05:59:07.421Z,44.36
2023-05-09T06:01:37.351Z,44.39
2023-05-09T06:04:09.835Z,44.30
2023-05-09T06:06:40.529Z,44.49
2023-05-09T06:09:10.784Z,44.61
2023-05-09T06:11:41.074Z,44.22
2023-05-09T06:14:11.405Z,44.58
2023-05-09T06:16:41.852Z,44.27
2023-05-09T06:19:14.508Z,44.24
2023-05-09T06:21:45.147Z,44.39
2023-05-09T06:24:27.591Z,44.36
2023-05-09T06:27:05.609Z,44.31
2023-05-09T06:29:36.139Z,44.29
2023-05-09T06:32:06.936Z,44.10
2023-05-09T06:34:48.585Z,44.20
2023-05-09T06:37:18.593Z,44.21
2023-05-09T06:39:48.926Z,44.29
2023-05-09T06:42:19.425Z,44.30
2023-05-09T06:44:49.850Z,44.11
2023-05-09T06:47:20.219Z,44.00
2023-05-09T06:49:52.630Z,43.87
2023-05-09T06:52:23.021Z,43.90
2023-05-09T06:54:54.187Z,43.70
2023-05-09T06:57:24.302Z,43.84
2023-05-09T06:59:54.288Z,43.90
2023-05-09T07:02:24.953Z,44.02
2023-05-09T07:04:57.163Z,44.13
2023-05-09T07:07:27.925Z,43.88
2023-05-09T07:10:09.963Z,44.06
2023-05-09T07:12:41.956Z,44.03
2023-05-09T07:15:14.666Z,43.81
2023-05-09T07:17:48.124Z,44.28
2023-05-09T07:20:20.795Z,44.05
2023-05-09T07:22:51.126Z,43.82
2023-05-09T07:25:21.749Z,43.85
2023-05-09T07:27:51.706Z,43.89
2023-05-09T07:30:22.136Z,43.82
2023-05-09T07:32:52.766Z,43.37
2023-05-09T07:35:25.582Z,43.75
2023-05-09T07:37:55.263Z,43.78
2023-05-09T07:40:25.773Z,43.54
2023-05-09T07:42:57.212Z,43.71
2023-05-09T07:45:27.614Z,43.32
2023-05-09T07:47:58.284Z,43.15
2023-05-09T07:50:30.791Z,43.51
2023-05-09T07:53:00.992Z,43.04
2023-05-09T07:55:31.402Z,43.11
2023-05-09T07:58:01.155Z,42.97
2023-05-09T08:00:31.640Z,43.18
2023-05-09T08:03:02.510Z,43.17
2023-05-09T08:05:35.228Z,42.65
2023-05-09T08:08:05.885Z,43.06
2023-05-09T08:10:35.832Z,42.65
2023-05-09T08:13:05.638Z,42.77
2023-05-09T08:15:36.151Z,42.97
2023-05-09T08:18:06.859Z,43.11
2023-05-09T08:20:39.337Z,43.18
2023-05-09T08:23:09.897Z,42.51
2023-05-09T08:25:40.413Z,42.62
2023-05-09T08:28:10.477Z,42.63
2023-05-09T08:30:41.090Z,42.59
2023-05-09T08:33:11.627Z,42.85
2023-05-09T08:35:43.465Z,42.63
2023-05-09T08:38:13.669Z,42.45
2023-05-09T08:40:44.631Z,42.54
2023-05-09T08:43:15.268Z,42.51
2023-05-09T08:45:50.802Z,42.24
2023-05-09T08:48:22.377Z,42.27
2023-05-09T08:51:04.435Z,42.29
2023-05-09T08:53:35.012Z,42.24
2023-05-09T08:56:06.842Z,42.09
2023-05-09T08:58:38.337Z,41.74
2023-05-09T09:01:09.502Z,41.87
2023-05-09T09:03:40.638Z,42.05
2023-05-09T09:06:13.969Z,41.65
2023-05-09T09:08:45.027Z,41.68
2023-05-09T09:11:18.993Z,41.96
2023-05-09T09:13:52.030Z,42.20
2023-05-09T09:16:25.594Z,41.52
2023-05-09T09:18:59.069Z,41.42
2023-05-09T09:21:48.873Z,41.82
2023-05-09T09:24:25.187Z,41.41
2023-05-09T09:26:55.806Z,41.42
2023-05-09T09:29:29.016Z,41.48
2023-05-09T09:31:59.227Z,40.98
2023-05-09T09:34:29.747Z,40.98
2023-05-09T09:37:01.839Z,40.88
2023-05-09T09:39:32.188Z,41.17
2023-05-09T09:42:14.211Z,41.05
2023-05-09T09:44:44.856Z,41.04
2023-05-09T09:47:15.030Z,40.87
2023-05-09T09:49:49.075Z,41.13
2023-05-09T09:52:29.910Z,41.02
2023-05-09T09:55:00.121Z,41.22
2023-05-09T09:57:37.756Z,40.64
2023-05-09T10:00:09.698Z,41.17
2023-05-09T10:02:51.417Z,40.64
2023-05-09T10:05:24.858Z,40.78
2023-05-09T10:07:59.337Z,41.14
2023-05-09T10:10:32.258Z,40.43
2023-05-09T10:13:06.925Z,40.54
2023-05-09T10:15:52.187Z,40.86
2023-05-09T10:18:31.274Z,40.89
2023-05-09T10:21:04.552Z,40.89
2023-05-09T10:23:43.081Z,40.37
2023-05-09T10:26:27.862Z,40.87
2023-05-09T10:29:00.755Z,40.71
2023-05-09T10:31:34.679Z,41.06
2023-05-09T10:34:12.506Z,40.41
2023-05-09T10:36:42.905Z,40.67
2023-05-09T10:39:15.951Z,40.30
2023-05-09T10:41:47.061Z,40.66
2023-05-09T10:44:17.517Z,40.48
2023-05-09T10:46:47.932Z,40.69
2023-05-09T10:49:18.608Z,40.33
2023-05-09T10:51:48.762Z,40.51
2023-05-09T10:54:31.805Z,40.80
2023-05-09T10:57:02.464Z,40.30
2023-05-09T10:59:40.744Z,40.56
2023-05-09T11:02:18.388Z,40.33
2023-05-09T11:04:54.430Z,40.58
2023-05-09T11:07:30.885Z,40.24
2023-05-09T11:10:17.494Z,40.62
2023-05-09T11:12:59.220Z,40.32
2023-05-09T11:15:29.534Z,40.36
2023-05-09T11:18:10.158Z,40.42
2023-05-09T11:20:46.799Z,40.29
2023-05-09T11:23:20.724Z,40.44
2023-05-09T11:25:53.759Z,40.60
2023-05-09T11:28:31.862Z,40.55
2023-05-09T11:31:14.436Z,40.31
2023-05-09T11:33:47.246Z,40.13
2023-05-09T11:36:25.804Z,40.32
2023-05-09T11:39:08.934Z,39.98
2023-05-09T11:41:49.449Z,40.29
2023-05-09T11:44:21.208Z,40.15
2023-05-09T11:46:52.817Z,39.83
2023-05-09T11:49:23.238Z,40.15
2023-05-09T11:51:53.707Z,40.33
2023-05-09T11:54:26.940Z,40.17
2023-05-09T11:57:02.168Z,40.42
2023-05-09T11:59:32.751Z,40.25
2023-05-09T12:02:08.010Z,40.21
2023-05-09T12:04:39.808Z,40.43
2023-05-09T12:07:10.346Z,40.09
2023-05-09T12:09:40.433Z,40.69
2023-05-09T12:12:18.676Z,40.51
2023-05-09T12:14:51.239Z,40.73
2023-05-09T12:17:22.001Z,40.30
2023-05-09T12:19:52.112Z,40.18
2023-05-09T12:22:22.334Z,40.53
2023-05-09T12:24:52.907Z,40.13
2023-05-09T12:27:26.940Z,40.34
2023-05-09T12:29:58.138Z,40.72
2023-05-09T12:32:32.162Z,40.29
2023-05-09T12:35:03.742Z,40.43
2023-05-09T12:37:34.647Z,40.70
2023-05-09T12:40:06.600Z,40.44
2023-05-09T12:42:39.736Z,40.39
2023-05-09T12:45:12.863Z,40.59
2023-05-09T12:47:43.763Z,40.73
2023-05-09T12:50:14.904Z,40.49
2023-05-09T12:53:02.110Z,40.58
2023-05-09T12:55:33.316Z,40.62
2023-05-09T12:58:06.437Z,40.46
2023-05-09T13:00:46.678Z,40.82
2023-05-09T13:03:30.131Z,40.32
2023-05-09T13:06:02.323Z,40.51
2023-05-09T13:08:34.970Z,40.09
2023-05-09T13:11:15.638Z,40.64
2023-05-09T13:13:48.575Z,40.80
2023-05-09T13:16:18.800Z,40.25
2023-05-09T13:18:52.001Z,40.59
2023-05-09T13:21:22.206Z,40.74
2023-05-09T13:23:52.710Z,40.16
2023-05-09T13:26:22.967Z,40.35
2023-05-09T13:28:55.287Z,40.55
2023-05-09T13:31:26.827Z,40.45
2023-05-09T13:33:56.810Z,40.76
2023-05-09T13:36:26.532Z,40.72
2023-05-09T13:38:56.938Z,40.36
2023-05-09T13:41:27.664Z,40.62
2023-05-09T13:44:00.212Z,40.61
2023-05-09T13:46:30.775Z,40.62
2023-05-09T13:49:02.267Z,40.75
2023-05-09T13:51:33.015Z,41.03
2023-05-09T13:54:12.936Z,40.50
2023-05-09T13:56:43.664Z,40.74
2023-05-09T13:59:15.470Z,41.08
2023-05-09T14:01:46.048Z,40.71
2023-05-09T14:04:16.521Z,40.80
2023-05-09T14:06:48.683Z,40.88
2023-05-09T14:09:19.934Z,40.48
2023-05-09T14:11:51.223Z,40.80
2023-05-09T14:14:24.600Z,40.97
2023-05-09T14:16:55.264Z,40.96
2023-05-09T14:19:25.491Z,40.43
2023-05-09T14:21:55.873Z,40.84
2023-05-09T14:24:26.630Z,40.95
2023-05-09T14:26:56.883Z,40.89
2023-05-09T14:29:29.225Z,41.13
2023-05-09T14:31:59.790Z,40.69
2023-05-09T14:34:30.305Z,40.99
2023-05-09T14:37:00.635Z,40.55
2023-05-09T14:39:30.861Z,40.89
2023-05-09T14:42:01.011Z,40.97
2023-05-09T14:44:32.883Z,41.18
2023-05-09T14:47:03.216Z,41.09
2023-05-09T14:49:33.707Z,41.15
2023-05-09T14:52:04.145Z,40.81
2023-05-09T14:54:34.018Z,40.89
2023-05-09T14:57:05.750Z,41.09
2023-05-09T14:59:38.345Z,41.23
2023-05-09T15:02:09.286Z,41.10
2023-05-09T15:04:39.006Z,40.76
2023-05-09T15:07:09.261Z,41.27
2023-05-09T15:09:40.036Z,40.86
2023-05-09T15:12:11.315Z,40.88
2023-05-09T15:14:43.712Z,41.38
2023-05-09T15:17:13.658Z,40.83
2023-05-09T15:19:43.904Z,40.91
2023-05-09T15:22:14.380Z,41.00
2023-05-09T15:24:44.647Z,41.28
2023-05-09T15:27:14.837Z,40.59
2023-05-09T15:29:47.119Z,40.72
2023-05-09T15:32:17.234Z,40.95
2023-05-09T15:34:47.784Z,41.21
2023-05-09T15:37:18.083Z,40.78
2023-05-09T15:39:48.282Z,41.26
2023-05-09T15:42:19.594Z,41.31
2023-05-09T15:44:52.029Z,40.98
2023-05-09T15:47:22.072Z,41.07
2023-05-09T15:49:52.491Z,41.13
2023-05-09T15:52:22.811Z,40.91
2023-05-09T15:54:52.833Z,41.27
2023-05-09T15:57:23.196Z,41.23
2023-05-09T15:59:56.870Z,41.04
2023-05-09T16:02:27.782Z,41.29
2023-05-09T16:04:58.181Z,41.25
2023-05-09T16:07:28.468Z,40.92
2023-05-09T16:09:59.369Z,41.23
2023-05-09T16:12:30.002Z,41.39
2023-05-09T16:15:02.789Z,41.24
2023-05-09T16:17:34.067Z,41.17
2023-05-09T16:20:04.268Z,41.51
2023-05-09T16:22:34.227Z,41.49
2023-05-09T16:25:04.726Z,41.11
2023-05-09T16:27:34.482Z,41.30
2023-05-09T16:30:08.168Z,41.56
2023-05-09T16:32:38.758Z,41.25
2023-05-09T16:35:11.144Z,41.64
2023-05-09T16:37:41.478Z,41.07
2023-05-09T16:40:13.576Z,41.29
2023-05-09T16:42:44.093Z,41.19
2023-05-09T16:45:16.892Z,41.34
2023-05-09T16:47:47.412Z,41.41
2023-05-09T16:50:17.981Z,41.31
2023-05-09T16:52:50.787Z,41.41
2023-05-09T16:55:21.267Z,41.25
2023-05-09T16:57:51.925Z,41.49
2023-05-09T17:00:27.298Z,41.56
2023-05-09T17:02:57.895Z,41.73
2023-05-09T17:05:29.810Z,41.43
2023-05-09T17:08:00.382Z,41.68
2023-05-09T17:10:30.890Z,41.62
2023-05-09T17:13:00.868Z,41.19
2023-05-09T17:15:34.745Z,41.60
2023-05-09T17:18:05.431Z,41.66
2023-05-09T17:20:35.968Z,41.91
2023-05-09T17:23:06.583Z,41.72
2023-05-09T17:25:36.534Z,42.01
2023-05-09T17:28:06.745Z,41.73
2023-05-09T17:30:39.997Z,41.75
2023-05-09T17:33:10.545Z,41.90
2023-05-09T17:35:40.587Z,41.74
2023-05-09T17:38:10.515Z,41.70
2023-05-09T17:40:45.793Z,41.79
2023-05-09T17:43:16.154Z,41.99
2023-05-09T17:45:48.810Z,42.03
2023-05-09T17:48:18.967Z,41.67
2023-05-09T17:50:49.768Z,42.09
2023-05-09T17:53:20.352Z,42.10
2023-05-09T17:55:50.296Z,41.73
2023-05-09T17:58:21.272Z,42.06
2023-05-09T18:00:58.968Z,42.12
2023-05-09T18:03:29.889Z,41.99
2023-05-09T18:06:00.701Z,42.17
2023-05-09T18:08:31.547Z,41.80
2023-05-09T18:11:02.975Z,41.93
2023-05-09T18:13:33.856Z,42.05
2023-05-09T18:16:07.035Z,41.79
2023-05-09T18:18:37.531Z,42.07
2023-05-09T18:21:08.513Z,42.09
2023-05-09T18:23:38.616Z,42.21
2023-05-09T18:26:08.656Z,42.34
2023-05-09T18:28:41.363Z,42.24
2023-05-09T18:31:14.443Z,42.08
2023-05-09T18:33:44.468Z,42.33
2023-05-09T18:36:15.885Z,42.10
2023-05-09T18:38:48.146Z,41.96
2023-05-09T18:41:18.667Z,42.20
2023-05-09T18:43:49.028Z,42.47
2023-05-09T18:46:22.203Z,42.48
2023-05-09T18:48:54.249Z,42.54
2023-05-09T18:51:24.592Z,42.28
2023-05-09T18:53:54.676Z,42.44
2023-05-09T18:56:25.894Z,42.50
2023-05-09T18:58:56.131Z,42.48
2023-05-09T19:01:28.510Z,42.29
2023-05-09T19:03:58.722Z,42.50
2023-05-09T19:06:29.919Z,42.44
2023-05-09T19:09:00.023Z,42.71
2023-05-09T19:11:30.105Z,42.47
2023-05-09T19:13:59.989Z,42.47
2023-05-09T19:16:32.246Z,42.63
2023-05-09T19:19:03.307Z,42.43
2023-05-09T19:21:34.856Z,42.44
2023-05-09T19:24:06.704Z,42.56
2023-05-09T19:26:36.258Z,42.78
2023-05-09T19:29:08.498Z,42.33
2023-05-09T19:31:40.764Z,42.53
2023-05-09T19:34:11.078Z,42.59
2023-05-09T19:36:41.442Z,42.65
2023-05-09T19:39:11.905Z,42.34
2023-05-09T19:41:42.416Z,42.76
2023-05-09T19:44:12.829Z,42.56
2023-05-09T19:46:45.169Z,42.32
2023-05-09T19:49:17.941Z,42.84
2023-05-09T19:51:48.346Z,42.68
2023-05-09T19:54:20.034Z,42.59
2023-05-09T19:56:49.856Z,42.98
2023-05-09T19:59:19.508Z,42.76
2023-05-09T20:01:51.974Z,42.84
2023-05-09T20:04:22.821Z,42.76
2023-05-09T20:06:53.546Z,42.86
2023-05-09T20:09:23.776Z,42.98
2023-05-09T20:11:54.028Z,42.90
2023-05-09T20:14:24.218Z,42.96
2023-05-09T20:16:56.358Z,43.25
2023-05-09T20:19:26.689Z,42.76
2023-05-09T20:21:56.810Z,43.23
2023-05-09T20:24:27.129Z,43.12
2023-05-09T20:26:57.176Z,43.11
2023-05-09T20:29:28.194Z,42.94
2023-05-09T20:32:00.321Z,43.28
2023-05-09T20:34:30.641Z,43.07
2023-05-09T20:37:00.531Z,43.12
2023-05-09T20:39:30.905Z,43.15
2023-05-09T20:42:02.691Z,43.25
2023-05-09T20:44:33.137Z,43.12
2023-05-09T20:47:05.082Z,43.30
2023-05-09T20:49:34.861Z,43.22
2023-05-09T20:52:04.987Z,43.13
2023-05-09T20:54:35.151Z,43.43
2023-05-09T20:57:05.819Z,43.31
2023-05-09T20:59:36.251Z,43.23
2023-05-09T21:02:08.713Z,43.47
2023-05-09T21:04:38.819Z,43.39
2023-05-09T21:07:10.315Z,43.36
2023-05-09T21:09:40.206Z,43.36
2023-05-09T21:12:11.226Z,43.38
2023-05-09T21:14:41.401Z,43.84
2023-05-09T21:17:13.896Z,43.54
2023-05-09T21:19:44.120Z,43.37
2023-05-09T21:22:13.748Z,43.70
2023-05-09T21:24:43.755Z,43.70
2023-05-09T21:27:13.635Z,43.59
2023-05-09T21:29:43.642Z,43.75
2023-05-09T21:32:15.223Z,43.53
2023-05-09T21:34:45.787Z,43.53
2023-05-09T21:37:15.707Z,43.79
2023-05-09T21:39:45.909Z,43.84
2023-05-09T21:42:15.433Z,44.13
2023-05-09T21:44:45.668Z,44.08
2023-05-09T21:47:18.161Z,43.82
2023-05-09T21:49:48.636Z,43.82
2023-05-09T21:52:18.764Z,44.00
2023-05-09T21:54:48.827Z,43.77
2023-05-09T21:57:19.067Z,43.97
2023-05-09T21:59:49.352Z,43.88
2023-05-09T22:02:21.366Z,44.02
2023-05-09T22:04:51.600Z,44.18
2023-05-09T22:07:21.813Z,43.99
2023-05-09T22:09:51.977Z,44.08
2023-05-09T22:12:23.416Z,44.03
2023-05-09T22:14:56.686Z,44.16
2023-05-09T22:17:29.987Z,44.04
2023-05-09T22:19:59.673Z,43.96
2023-05-09T22:22:30.063Z,44.01
2023-05-09T22:25:00.306Z,43.86
2023-05-09T22:27:30.639Z,44.24
2023-05-09T22:30:00.595Z,44.07
2023-05-09T22:32:32.653Z,44.07
2023-05-09T22:35:02.908Z,44.07
2023-05-09T22:37:33.173Z,44.04
2023-05-09T22:40:03.597Z,44.35
2023-05-09T22:42:35.151Z,44.27
2023-05-09T22:45:06.112Z,44.23
2023-05-09T22:47:38.669Z,44.26
2023-05-09T22:50:10.996Z,44.27
2023-05-09T22:52:41.329Z,44.19
2023-05-09T22:55:11.781Z,44.08
2023-05-09T22:57:42.503Z,43.90
2023-05-09T23:00:14.704Z,44.16
2023-05-09T23:02:47.072Z,44.00
2023-05-09T23:05:17.322Z,43.98
2023-05-09T23:07:48.041Z,44.04
2023-05-09T23:10:19.121Z,44.29
2023-05-09T23:12:49.033Z,44.21
2023-05-09T23:15:19.433Z,44.20
2023-05-09T23:17:51.616Z,44.49
2023-05-09T23:20:21.699Z,44.19
2023-05-09T23:22:51.646Z,44.10
2023-05-09T23:25:22.118Z,44.19
2023-05-09T23:27:52.222Z,44.24
2023-05-09T23:30:22.666Z,44.27
2023-05-09T23:32:54.960Z,44.29
2023-05-09T23:35:26.612Z,44.32
2023-05-09T23:37:56.798Z,44.20
2023-05-09T23:40:27.288Z,44.20
2023-05-09T23:42:57.262Z,44.39
2023-05-09T23:45:27.958Z,44.31
2023-05-09T23:48:00.192Z,44.28
2023-05-09T23:50:30.682Z,44.14
2023-05-09T23:53:00.992Z,44.31
2023-05-09T23:55:31.001Z,44.39
2023-05-09T23:58:02.866Z,44.37
